Pearson, Georgia
Current Conditions -  °F | °C
As of 9:55 AM on Thursday 30 Oct 2014 (Local Time) from KDQH Reporting Station
Overcast Overcast  
Wind Chill: 61°   Ceiling: 10000
Heat Index: 61°   Visibility: 10mi
Dew Point: 48°   Wind: 6mph
Humidity: 63%   Direction: 360°N
Pressure: 30.05"   Gusts: NA
Location:  31.3°N, 82.85°W
Report Text: KDQH 301355Z AUTO 36005KT 10SM OVC100 16/09 A3005 RMK AO2
Loading
Personal Weather Stations






























Interactive Weather Map
Tropical Storm Tracking
New forecast layout! Learn more

10-Day Weather Forecast

Advertisements
Track Severe Weather on mobile